Time;durP1;ratioP1;P1;durP2;ratioP2;P2;SDS_P1;SDS_P2;PMS_P1;PMS_P2;Temp;Humidity;BMP_temperature;BMP_pressure;BME280_temperature;BME280_humidity;BME280_pressure;Samples;Min_cycle;Max_cycle;Signal;HPM_P1;HPM_P2
2022/09/01 00:00:05;;;;;;;2.13;1.80;;;;;;;17.89;100.00;99425.19;5113252;28;20207;-80
2022/09/01 00:02:35;;;;;;;1.90;1.50;;;;;;;17.99;100.00;99426.91;5116826;28;20218;-80
2022/09/01 00:05:07;;;;;;;5.40;1.57;;;;;;;18.06;100.00;99421.00;5112871;28;20218;-80
2022/09/01 00:07:36;;;;;;;3.13;1.70;;;;;;;17.97;100.00;99420.84;5108725;28;20645;-80
2022/09/01 00:10:07;;;;;;;1.80;1.57;;;;;;;17.97;100.00;99420.00;5112001;28;20199;-80
2022/09/01 00:12:37;;;;;;;2.70;1.40;;;;;;;17.97;100.00;99418.16;5113793;28;20425;-79
2022/09/01 00:15:11;;;;;;;2.93;1.90;;;;;;;17.92;100.00;99423.09;5110585;28;20217;-80
2022/09/01 00:17:40;;;;;;;3.30;1.63;;;;;;;17.77;100.00;99420.94;5108720;28;20210;-80
2022/09/01 00:20:09;;;;;;;2.10;1.77;;;;;;;17.67;100.00;99435.13;5108760;28;20190;-80
2022/09/01 00:22:38;;;;;;;6.00;1.80;;;;;;;17.71;100.00;99425.00;5048762;28;20197;-80
2022/09/01 00:25:07;;;;;;;3.47;1.70;;;;;;;17.78;100.00;99426.16;5049483;28;20221;-80
2022/09/01 00:27:39;;;;;;;3.00;1.73;;;;;;;17.67;100.00;99434.28;5045707;28;20560;-80
2022/09/01 00:30:11;;;;;;;3.70;1.90;;;;;;;17.59;100.00;99432.28;5049088;28;20273;-80
2022/09/01 00:32:39;;;;;;;2.30;1.90;;;;;;;17.69;100.00;99426.97;5048755;28;20204;-79
2022/09/01 00:35:08;;;;;;;2.50;2.00;;;;;;;17.72;100.00;99430.22;5049217;28;20204;-80
2022/09/01 00:37:38;;;;;;;3.03;2.20;;;;;;;17.87;100.00;99428.03;5046661;28;20216;-80
2022/09/01 00:40:09;;;;;;;3.20;1.70;;;;;;;17.80;100.00;99424.19;5057749;28;20203;-80
2022/09/01 00:42:38;;;;;;;4.33;1.70;;;;;;;17.73;100.00;99431.06;5110497;28;20187;-80
2022/09/01 00:45:11;;;;;;;2.80;1.57;;;;;;;17.82;100.00;99416.84;5113276;28;20309;-80
2022/09/01 00:47:42;;;;;;;4.47;1.80;;;;;;;17.85;100.00;99415.72;5109777;28;20230;-80
2022/09/01 00:50:14;;;;;;;3.10;1.67;;;;;;;17.69;100.00;99414.44;5109247;28;20198;-80
2022/09/01 00:52:48;;;;;;;2.73;1.70;;;;;;;17.31;100.00;99419.63;5111710;28;20650;-80
2022/09/01 00:55:21;;;;;;;1.77;1.50;;;;;;;17.34;100.00;99430.06;5069174;28;20280;-80
2022/09/01 00:57:52;;;;;;;2.57;1.70;;;;;;;17.31;100.00;99423.16;5068683;28;20220;-80
2022/09/01 01:00:27;;;;;;;1.97;1.50;;;;;;;17.20;100.00;99423.25;5065608;28;20200;-80
2022/09/01 01:02:57;;;;;;;2.27;1.67;;;;;;;17.38;100.00;99423.47;5070181;28;20276;-80
2022/09/01 01:05:31;;;;;;;2.43;1.60;;;;;;;17.26;100.00;99422.69;5070144;28;20274;-80
2022/09/01 01:08:02;;;;;;;3.47;1.53;;;;;;;17.24;100.00;99416.63;5067345;28;20203;-80
2022/09/01 01:10:34;;;;;;;2.07;1.43;;;;;;;17.26;100.00;99414.66;5067826;28;20600;-79
2022/09/01 01:13:09;;;;;;;4.43;1.57;;;;;;;17.36;100.00;99418.22;5086507;28;20244;-80
2022/09/01 01:15:42;;;;;;;4.33;1.70;;;;;;;17.31;100.00;99407.09;5107985;28;20203;-79
2022/09/01 01:18:11;;;;;;;2.83;1.70;;;;;;;17.26;100.00;99408.47;5093016;28;20222;-80
2022/09/01 01:23:39;;;;;;;3.50;2.00;;;;;;;17.28;100.00;99415.41;5113438;28;20281;-80
2022/09/01 01:26:10;;;;;;;4.20;1.57;;;;;;;17.31;100.00;99407.09;5107412;28;20258;-80
2022/09/01 01:28:43;;;;;;;3.03;1.73;;;;;;;17.23;100.00;99406.91;5109887;28;20677;-80
2022/09/01 01:31:14;;;;;;;2.93;1.60;;;;;;;17.34;100.00;99404.13;5115114;28;20210;-80
2022/09/01 01:33:46;;;;;;;2.30;1.60;;;;;;;17.29;100.00;99406.38;5109143;28;20214;-80
2022/09/01 01:36:18;;;;;;;2.67;1.50;;;;;;;17.31;100.00;99404.41;5110823;28;20626;-80
2022/09/01 01:38:49;;;;;;;3.13;1.60;;;;;;;17.28;100.00;99396.66;5109313;28;20309;-80
2022/09/01 01:41:23;;;;;;;2.53;1.77;;;;;;;17.24;100.00;99400.56;5108428;28;20199;-80
2022/09/01 01:43:51;;;;;;;3.30;1.60;;;;;;;17.19;100.00;99401.97;5109447;28;20187;-80
2022/09/01 01:46:20;;;;;;;2.43;1.53;;;;;;;17.27;100.00;99397.63;5113793;28;20226;-79
2022/09/01 01:48:51;;;;;;;2.43;1.60;;;;;;;17.27;100.00;99392.25;5069424;28;20331;-80
2022/09/01 01:51:23;;;;;;;4.33;1.60;;;;;;;17.09;100.00;99394.75;5067211;28;20184;-80
2022/09/01 01:53:54;;;;;;;2.50;1.47;;;;;;;17.14;100.00;99400.53;5069030;28;20292;-80
2022/09/01 01:56:25;;;;;;;1.50;1.40;;;;;;;16.98;100.00;99404.66;5070287;28;20208;-80
2022/09/01 01:58:57;;;;;;;3.93;1.80;;;;;;;16.95;100.00;99413.81;5068593;28;20254;-80
2022/09/01 02:01:30;;;;;;;3.80;1.50;;;;;;;16.90;100.00;99407.19;5070553;28;20215;-80
2022/09/01 02:04:03;;;;;;;3.40;1.60;;;;;;;16.91;100.00;99404.38;5067698;28;20285;-80
2022/09/01 02:06:34;;;;;;;4.40;1.60;;;;;;;16.91;100.00;99404.38;5081244;28;20225;-80
2022/09/01 02:09:05;;;;;;;3.33;1.70;;;;;;;16.99;100.00;99406.38;5113172;28;20187;-80
2022/09/01 02:11:36;;;;;;;2.13;1.40;;;;;;;16.84;100.00;99404.03;5112595;28;20202;-80
2022/09/01 02:14:07;;;;;;;3.07;1.50;;;;;;;16.86;100.00;99399.41;5107198;28;20205;-80
2022/09/01 02:16:39;;;;;;;2.90;1.43;;;;;;;16.95;100.00;99399.59;5108458;28;20202;-80
2022/09/01 02:19:11;;;;;;;3.87;1.47;;;;;;;16.72;100.00;99394.41;5108817;28;20207;-80
2022/09/01 02:21:43;;;;;;;1.93;1.60;;;;;;;16.60;100.00;99398.09;5076075;28;20901;-80
2022/09/01 02:24:12;;;;;;;4.50;1.63;;;;;;;16.61;100.00;99394.44;5108311;28;20206;-80
2022/09/01 02:26:46;;;;;;;3.47;1.50;;;;;;;16.70;100.00;99393.69;5110019;28;20226;-80
2022/09/01 02:29:20;;;;;;;3.43;1.50;;;;;;;16.52;100.00;99393.38;5111408;28;20216;-80
2022/09/01 02:31:53;;;;;;;4.77;1.60;;;;;;;16.57;100.00;99388.47;5109155;28;20716;-80
2022/09/01 02:34:24;;;;;;;4.10;1.47;;;;;;;16.59;100.00;99391.88;5109457;28;20195;-80
2022/09/01 02:36:54;;;;;;;2.40;1.60;;;;;;;16.69;100.00;99399.13;5109712;28;20191;-80
2022/09/01 02:39:25;;;;;;;5.10;1.80;;;;;;;16.62;100.00;99388.09;5106804;28;20224;-79
2022/09/01 02:41:57;;;;;;;2.77;1.33;;;;;;;16.62;100.00;99392.59;5109281;28;20214;-79
2022/09/01 02:44:26;;;;;;;2.57;1.63;;;;;;;16.71;100.00;99384.69;5110728;28;20241;-80
2022/09/01 02:46:55;;;;;;;2.00;1.33;;;;;;;16.67;100.00;99388.53;5105324;28;20270;-80
2022/09/01 02:49:27;;;;;;;4.40;1.53;;;;;;;16.63;100.00;99383.59;5110789;28;20217;-79
2022/09/01 02:52:00;;;;;;;1.90;1.50;;;;;;;16.49;100.00;99393.63;5103242;28;20210;-80
2022/09/01 02:54:30;;;;;;;3.50;1.57;;;;;;;16.49;100.00;99385.59;5112362;28;20198;-79
2022/09/01 02:57:03;;;;;;;2.60;1.57;;;;;;;16.22;100.00;99386.13;5050501;28;20255;-80
2022/09/01 02:59:34;;;;;;;3.30;1.53;;;;;;;16.31;100.00;99381.84;5044596;28;20220;-79
2022/09/01 03:02:09;;;;;;;2.00;1.50;;;;;;;16.33;100.00;99382.56;5047806;28;20239;-80
2022/09/01 03:04:39;;;;;;;2.10;1.60;;;;;;;15.99;100.00;99382.69;5042520;28;20197;-79
2022/09/01 03:07:08;;;;;;;5.60;1.60;;;;;;;16.13;100.00;99376.22;5051795;28;20197;-78
2022/09/01 03:09:40;;;;;;;3.43;1.30;;;;;;;16.27;100.00;99389.25;5052872;28;20193;-79
2022/09/01 03:12:10;;;;;;;2.37;1.50;;;;;;;16.29;100.00;99383.78;5047588;28;20271;-79
2022/09/01 03:14:38;;;;;;;2.53;1.70;;;;;;;16.27;100.00;99383.91;5056794;28;20201;-79
2022/09/01 03:17:06;;;;;;;3.20;1.80;;;;;;;16.14;100.00;99385.91;5109373;28;20218;-79
2022/09/01 03:19:39;;;;;;;3.13;1.80;;;;;;;16.15;100.00;99389.44;5110854;28;20302;-79
2022/09/01 03:22:07;;;;;;;4.43;1.97;;;;;;;16.14;100.00;99390.41;5107100;28;20195;-79
2022/09/01 03:24:36;;;;;;;4.50;1.90;;;;;;;16.21;100.00;99387.09;5108026;28;20191;-79
2022/09/01 03:27:05;;;;;;;2.80;1.50;;;;;;;15.81;100.00;99386.84;5109883;28;20191;-79
2022/09/01 03:29:34;;;;;;;2.57;1.40;;;;;;;15.94;100.00;99392.06;5068963;28;20193;-79
2022/09/01 03:32:04;;;;;;;3.27;1.70;;;;;;;15.86;100.00;99383.81;5068713;28;20227;-79
2022/09/01 03:34:35;;;;;;;3.30;1.73;;;;;;;15.79;100.00;99382.63;5069114;28;20204;-79
2022/09/01 03:37:06;;;;;;;2.93;1.40;;;;;;;15.90;100.00;99393.28;5062283;28;20207;-79
2022/09/01 03:39:38;;;;;;;1.80;1.20;;;;;;;15.98;100.00;99389.00;5067984;28;20226;-79
2022/09/01 03:42:10;;;;;;;2.23;1.67;;;;;;;15.83;100.00;99392.09;5068615;28;20231;-79
2022/09/01 03:44:43;;;;;;;2.50;1.50;;;;;;;16.00;100.00;99380.84;5063276;28;20201;-79
2022/09/01 03:47:15;;;;;;;2.33;1.70;;;;;;;16.10;100.00;99388.94;5077663;28;20245;-79
2022/09/01 03:49:44;;;;;;;1.60;1.40;;;;;;;16.01;100.00;99387.88;5109223;28;20282;-79
2022/09/01 03:52:14;;;;;;;2.23;1.50;;;;;;;15.93;100.00;99385.03;5108139;28;20206;-79
2022/09/01 03:54:44;;;;;;;2.23;1.50;;;;;;;15.94;100.00;99384.91;5104651;28;20226;-79
2022/09/01 03:57:12;;;;;;;1.97;1.37;;;;;;;16.06;100.00;99387.53;5073017;28;20210;-80
2022/09/01 03:59:44;;;;;;;5.23;1.40;;;;;;;15.99;100.00;99381.81;5108874;28;20242;-79
2022/09/01 04:02:13;;;;;;;1.93;1.27;;;;;;;15.87;100.00;99382.84;5111572;28;20198;-79
2022/09/01 04:04:42;;;;;;;2.23;1.40;;;;;;;15.91;100.00;99377.13;5105523;28;20188;-79
2022/09/01 04:07:11;;;;;;;2.37;1.50;;;;;;;15.90;100.00;99382.59;5105820;28;20270;-79
2022/09/01 04:09:46;;;;;;;2.90;1.37;;;;;;;15.75;100.00;99382.03;5109414;28;20195;-79
2022/09/01 04:12:16;;;;;;;2.43;1.20;;;;;;;15.55;100.00;99380.97;5109169;28;20222;-79
2022/09/01 04:14:47;;;;;;;2.60;1.53;;;;;;;15.56;100.00;99384.47;5101194;28;20206;-79
2022/09/01 04:20:08;;;;;;;3.70;1.60;;;;;;;15.45;100.00;99377.34;5112978;28;20211;-80
2022/09/01 04:22:37;;;;;;;2.97;1.20;;;;;;;15.39;100.00;99386.69;5107053;28;20278;-79
2022/09/01 04:25:09;;;;;;;2.70;1.50;;;;;;;15.28;100.00;99384.03;5107324;28;20236;-79
2022/09/01 04:27:43;;;;;;;3.83;1.67;;;;;;;15.22;100.00;99384.50;5063889;28;20195;-79
2022/09/01 04:30:14;;;;;;;2.13;1.37;;;;;;;15.27;100.00;99385.00;5069860;28;20193;-79
2022/09/01 04:32:45;;;;;;;1.97;1.40;;;;;;;15.07;100.00;99381.25;5071080;28;20280;-79
2022/09/01 04:35:15;;;;;;;3.20;1.50;;;;;;;15.04;100.00;99388.63;5066818;28;20223;-79
2022/09/01 04:37:46;;;;;;;2.30;1.50;;;;;;;15.11;100.00;99392.50;5066282;28;20224;-79
2022/09/01 04:40:16;;;;;;;2.80;1.33;;;;;;;15.00;100.00;99382.69;5038190;28;20322;-79
2022/09/01 04:42:45;;;;;;;5.57;1.40;;;;;;;15.01;100.00;99389.72;5018981;28;20275;-79
2022/09/01 04:45:15;;;;;;;2.40;1.47;;;;;;;14.82;100.00;99392.97;5068130;28;20220;-79
2022/09/01 04:47:48;;;;;;;1.93;1.30;;;;;;;14.97;100.00;99390.09;5080585;28;20211;-79
2022/09/01 04:50:16;;;;;;;1.50;1.20;;;;;;;14.91;100.00;99391.41;5109362;28;20195;-79
2022/09/01 04:52:46;;;;;;;4.70;1.33;;;;;;;15.05;100.00;99392.97;5107854;28;20203;-79
2022/09/01 04:55:17;;;;;;;2.20;1.40;;;;;;;14.86;100.00;99396.25;5110397;28;20213;-79
2022/09/01 04:57:48;;;;;;;2.67;1.53;;;;;;;14.92;100.00;99402.94;5061910;28;20196;-79
2022/09/01 05:00:24;;;;;;;3.67;1.30;;;;;;;15.01;100.00;99392.38;5117291;28;20301;-80
2022/09/01 05:03:00;;;;;;;1.83;1.43;;;;;;;15.01;100.00;99394.22;5111422;28;20222;-80
2022/09/01 05:05:28;;;;;;;1.67;1.20;;;;;;;15.07;100.00;99394.59;5111610;28;20279;-80
2022/09/01 05:07:57;;;;;;;4.70;1.67;;;;;;;14.95;100.00;99400.00;5066935;28;20251;-80
2022/09/01 05:10:28;;;;;;;1.40;1.27;;;;;;;14.91;100.00;99403.91;5069296;28;20200;-80
2022/09/01 05:12:57;;;;;;;3.10;1.20;;;;;;;14.72;100.00;99399.13;5069006;28;20210;-79
2022/09/01 05:15:29;;;;;;;2.50;1.40;;;;;;;14.84;100.00;99401.69;5029487;28;20724;-79
2022/09/01 05:17:58;;;;;;;2.80;1.30;;;;;;;14.94;100.00;99409.84;5032766;28;20197;-79
2022/09/01 05:20:28;;;;;;;1.87;1.30;;;;;;;14.76;100.00;99404.09;5026342;28;20220;-79
2022/09/01 05:22:57;;;;;;;2.90;1.37;;;;;;;14.79;100.00;99405.72;5020960;28;20213;-79
2022/09/01 05:25:26;;;;;;;3.13;1.40;;;;;;;14.86;100.00;99404.22;5038539;28;20271;-79
2022/09/01 05:27:54;;;;;;;1.70;1.20;;;;;;;14.60;100.00;99409.78;5071267;28;20185;-80
2022/09/01 05:30:27;;;;;;;3.13;1.40;;;;;;;14.85;100.00;99411.38;5071640;28;20204;-80
2022/09/01 05:32:57;;;;;;;3.63;2.00;;;;;;;14.95;100.00;99413.34;5080004;28;20183;-80
2022/09/01 05:35:30;;;;;;;2.10;1.33;;;;;;;15.01;100.00;99415.53;5062331;28;20274;-79
2022/09/01 05:38:01;;;;;;;5.77;1.63;;;;;;;15.02;100.00;99407.41;5111767;28;20199;-80
2022/09/01 05:40:31;;;;;;;1.67;1.30;;;;;;;15.17;100.00;99406.22;5110428;28;20250;-80
2022/09/01 05:42:59;;;;;;;3.47;1.60;;;;;;;15.11;100.00;99417.38;5109134;28;20198;-81
2022/09/01 05:45:28;;;;;;;2.60;1.40;;;;;;;15.02;100.00;99414.56;5110752;28;20207;-80
2022/09/01 05:48:22;;;;;;;4.70;1.37;;;;;;;14.97;100.00;99409.63;5116160;28;20215;-80
2022/09/01 05:50:55;;;;;;;5.33;1.60;;;;;;;14.99;100.00;99406.81;5108656;28;20195;-80
2022/09/01 05:53:24;;;;;;;3.37;1.20;;;;;;;14.94;100.00;99408.97;5113728;28;20194;-79
2022/09/01 05:55:55;;;;;;;1.73;1.20;;;;;;;15.14;100.00;99408.25;5112116;28;20691;-80
2022/09/01 05:58:26;;;;;;;4.70;1.83;;;;;;;15.06;100.00;99413.38;5111365;28;20275;-80
2022/09/01 06:01:21;;;;;;;4.80;1.67;;;;;;;15.08;100.00;99406.09;5115951;28;20226;-79
2022/09/01 06:03:55;;;;;;;2.97;1.50;;;;;;;15.21;100.00;99404.16;5108125;28;20237;-80
2022/09/01 06:06:27;;;;;;;2.37;1.30;;;;;;;15.28;100.00;99410.72;5112811;28;20215;-80
2022/09/01 06:09:11;;;;;;;4.13;1.63;;;;;;;15.41;100.00;99416.75;5114705;28;20209;-79
2022/09/01 06:11:41;;;;;;;4.77;1.40;;;;;;;15.55;100.00;99412.16;5109552;28;20202;-79
2022/09/01 06:14:11;;;;;;;3.23;1.20;;;;;;;15.60;100.00;99412.63;5111913;28;20646;-79
2022/09/01 06:16:46;;;;;;;4.50;1.57;;;;;;;15.77;100.00;99416.63;5108472;28;20282;-79
2022/09/01 06:19:16;;;;;;;2.93;1.40;;;;;;;15.74;100.00;99417.75;5105929;28;20196;-79
2022/09/01 06:21:44;;;;;;;8.40;1.70;;;;;;;15.93;100.00;99412.59;5113190;28;20306;-79
2022/09/01 06:24:13;;;;;;;3.67;1.43;;;;;;;16.02;100.00;99413.66;5107350;28;20199;-79
2022/09/01 06:26:45;;;;;;;4.47;1.47;;;;;;;16.18;100.00;99415.91;5106748;28;20274;-79
2022/09/01 06:29:14;;;;;;;3.73;1.40;;;;;;;16.21;100.00;99419.19;5110710;28;20278;-80
2022/09/01 06:31:50;;;;;;;2.57;1.20;;;;;;;16.21;100.00;99412.97;5108344;28;20199;-79
2022/09/01 06:34:21;;;;;;;3.20;1.40;;;;;;;16.23;100.00;99414.56;5111038;28;20246;-80
2022/09/01 06:36:50;;;;;;;2.17;1.30;;;;;;;16.12;100.00;99419.09;5109601;28;20269;-80
2022/09/01 06:39:19;;;;;;;2.80;1.20;;;;;;;16.22;100.00;99423.56;5074107;28;20191;-80
2022/09/01 06:41:51;;;;;;;2.20;1.43;;;;;;;16.37;100.00;99424.06;5108746;28;20230;-80
2022/09/01 06:44:21;;;;;;;2.27;1.30;;;;;;;16.32;100.00;99423.63;5110814;28;20187;-79
2022/09/01 06:46:51;;;;;;;2.10;1.20;;;;;;;16.37;100.00;99424.06;5110848;28;20195;-79
2022/09/01 06:49:31;;;;;;;2.50;1.40;;;;;;;16.47;100.00;99433.03;5105043;28;20235;-80
2022/09/01 06:52:01;;;;;;;3.30;1.27;;;;;;;16.59;100.00;99431.13;5111892;28;20226;-79
2022/09/01 06:54:34;;;;;;;1.67;1.20;;;;;;;16.58;100.00;99427.63;5110867;28;20195;-80
2022/09/01 06:57:04;;;;;;;2.03;1.20;;;;;;;16.59;100.00;99434.66;5114372;28;20245;-80
2022/09/01 06:59:52;;;;;;;3.63;1.80;;;;;;;16.53;100.00;99429.84;5072536;28;20196;-80
2022/09/01 07:02:21;;;;;;;3.03;1.40;;;;;;;16.90;100.00;99429.44;5068519;28;20243;-79
2022/09/01 07:05:01;;;;;;;2.43;1.33;;;;;;;16.87;100.00;99429.66;5065679;28;20192;-79
2022/09/01 07:07:33;;;;;;;2.17;1.40;;;;;;;16.98;100.00;99428.75;5061644;28;20195;-79
2022/09/01 07:10:22;;;;;;;1.93;1.20;;;;;;;16.93;100.00;99434.50;5070945;28;20212;-80
2022/09/01 07:12:52;;;;;;;8.30;1.50;;;;;;;17.01;100.00;99432.03;5069974;28;20254;-80
2022/09/01 07:15:39;;;;;;;7.67;1.43;;;;;;;17.04;100.00;99434.44;5070495;28;20188;-80
2022/09/01 07:18:29;;;;;;;3.63;1.43;;;;;;;17.19;100.00;99428.75;5070785;28;20278;-80
2022/09/01 07:21:06;;;;;;;1.67;1.47;;;;;;;17.25;100.00;99430.88;5067504;28;20231;-79
2022/09/01 07:23:56;;;;;;;5.27;1.30;;;;;;;17.37;100.00;99419.06;5071250;28;20196;-79
2022/09/01 07:26:41;;;;;;;2.03;1.30;;;;;;;17.60;100.00;99427.78;5070317;28;20188;-80
2022/09/01 07:29:15;;;;;;;2.37;1.50;;;;;;;17.59;100.00;99423.41;5068540;28;20651;-80
2022/09/01 07:31:44;;;;;;;4.00;1.80;;;;;;;17.60;100.00;99423.25;5068409;28;20683;-80
2022/09/01 07:34:34;;;;;;;5.23;1.50;;;;;;;17.80;100.00;99421.50;5070621;28;20206;-79
2022/09/01 07:37:08;;;;;;;2.13;1.40;;;;;;;17.89;100.00;99419.84;5087817;28;20209;-80
2022/09/01 07:39:57;;;;;;;5.60;1.30;;;;;;;17.94;100.00;99422.94;5113261;28;20597;-79
2022/09/01 07:42:47;;;;;;;3.43;1.43;;;;;;;18.04;100.00;99426.47;5113266;28;20257;-79
2022/09/01 07:45:37;;;;;;;2.50;1.30;;;;;;;18.31;100.00;99428.47;5113022;28;20485;-79
2022/09/01 07:48:28;;;;;;;2.90;1.60;;;;;;;18.53;100.00;99422.00;5110779;28;20227;-79
2022/09/01 07:51:19;;;;;;;4.07;1.47;;;;;;;18.47;100.00;99425.25;5112073;28;20244;-79
2022/09/01 07:54:07;;;;;;;4.20;1.60;;;;;;;18.57;100.00;99423.41;5112529;28;20187;-79
2022/09/01 07:56:36;;;;;;;3.13;1.40;;;;;;;18.59;100.00;99426.78;5107610;28;20195;-79
2022/09/01 07:59:08;;;;;;;4.67;1.57;;;;;;;18.85;100.00;99435.97;5110946;28;20214;-79
2022/09/01 08:01:44;;;;;;;3.70;1.40;;;;;;;19.07;100.00;99433.94;5108687;28;20214;-79
2022/09/01 08:04:13;;;;;;;1.83;1.50;;;;;;;19.06;100.00;99429.56;5107319;28;20187;-79
2022/09/01 08:06:43;;;;;;;2.27;1.53;;;;;;;19.41;100.00;99421.69;5107204;28;20274;-79
2022/09/01 08:09:13;;;;;;;3.43;1.77;;;;;;;19.62;100.00;99426.84;5111115;28;20206;-79
2022/09/01 08:11:59;;;;;;;1.87;1.67;;;;;;;20.04;100.00;99423.63;5116670;28;20199;-79
2022/09/01 08:14:33;;;;;;;2.30;1.40;;;;;;;20.28;100.00;99415.81;5109730;28;20194;-80
2022/09/01 08:17:01;;;;;;;2.97;1.43;;;;;;;20.35;100.00;99413.31;5114860;28;20195;-80
2022/09/01 08:19:50;;;;;;;3.07;1.60;;;;;;;20.61;98.72;99420.66;5116738;28;20263;-79
2022/09/01 08:22:22;;;;;;;7.37;2.10;;;;;;;21.00;96.29;99429.19;5108458;28;20249;-79
2022/09/01 08:24:53;;;;;;;4.17;1.90;;;;;;;20.89;95.11;99424.06;5116532;28;20187;-80
2022/09/01 08:27:22;;;;;;;2.87;1.30;;;;;;;21.06;94.09;99425.88;5106732;28;20195;-79
2022/09/01 08:29:50;;;;;;;2.17;1.40;;;;;;;21.41;92.69;99419.53;5108551;28;20203;-81
2022/09/01 08:32:20;;;;;;;1.60;1.33;;;;;;;21.52;91.76;99421.06;5113751;28;20214;-79
2022/09/01 08:34:48;;;;;;;2.63;1.20;;;;;;;21.48;90.77;99425.97;5116197;28;20205;-80
2022/09/01 08:37:18;;;;;;;3.30;1.40;;;;;;;21.58;88.33;99423.97;5068065;28;20196;-79
2022/09/01 08:39:48;;;;;;;2.50;1.63;;;;;;;21.66;86.82;99421.31;5070541;28;20556;-79
2022/09/01 08:42:25;;;;;;;1.97;1.40;;;;;;;21.63;86.59;99423.50;5068889;28;20245;-80
2022/09/01 08:45:07;;;;;;;7.30;4.10;;;;;;;21.85;86.66;99417.53;5068672;28;20200;-80
2022/09/01 08:47:36;;;;;;;5.17;2.70;;;;;;;22.02;84.32;99422.97;5070662;28;20306;-80
2022/09/01 08:50:24;;;;;;;3.03;1.90;;;;;;;21.99;84.38;99419.56;5073508;28;20196;-80
2022/09/01 08:53:00;;;;;;;3.80;1.52;;;;;;;22.20;83.43;99429.13;5065556;28;20200;-79
2022/09/01 08:55:42;;;;;;;3.20;1.58;;;;;;;22.25;81.79;99427.59;5091274;28;20195;-80
2022/09/01 08:58:15;;;;;;;3.27;1.30;;;;;;;22.15;81.07;99429.59;5110038;28;20195;-80
2022/09/01 09:00:50;;;;;;;1.70;1.57;;;;;;;21.78;83.19;99431.81;5112243;28;20191;-80
2022/09/01 09:03:37;;;;;;;3.30;1.40;;;;;;;21.85;84.11;99424.78;5109709;28;20223;-79
2022/09/01 09:06:15;;;;;;;2.50;1.60;;;;;;;21.95;84.18;99420.91;5109094;28;20191;-79
2022/09/01 09:08:54;;;;;;;3.05;1.60;;;;;;;22.15;82.81;99418.81;5030129;28;20189;-80
2022/09/01 09:11:49;;;;;;;1.98;1.30;;;;;;;22.28;80.71;99421.00;5031615;28;20197;-80
2022/09/01 09:14:37;;;;;;;2.88;1.58;;;;;;;22.52;79.83;99422.91;5032603;28;20361;-79
2022/09/01 09:17:05;;;;;;;2.45;1.60;;;;;;;22.63;78.38;99410.91;5029502;28;20205;-80
2022/09/01 09:19:36;;;;;;;4.07;1.60;;;;;;;22.70;77.57;99410.06;5031751;28;20386;-80
2022/09/01 09:22:09;;;;;;;3.13;1.40;;;;;;;22.71;77.21;99414.47;5028191;28;20218;-79
2022/09/01 09:24:50;;;;;;;1.80;1.30;;;;;;;23.13;74.03;99413.41;5031844;28;20735;-79
2022/09/01 09:27:24;;;;;;;3.53;1.38;;;;;;;23.38;72.86;99408.78;5084730;28;20470;-79
2022/09/01 09:29:57;;;;;;;2.42;1.55;;;;;;;23.30;71.24;99404.25;5111079;28;20202;-79
2022/09/01 09:32:48;;;;;;;3.72;1.52;;;;;;;23.48;71.40;99398.63;5113151;28;20186;-80
2022/09/01 09:35:39;;;;;;;2.33;1.60;;;;;;;23.43;70.07;99388.31;5113970;28;20248;-80
2022/09/01 09:38:27;;;;;;;1.98;1.55;;;;;;;23.61;69.39;99390.81;5113344;28;20203;-79
2022/09/01 09:41:01;;;;;;;1.67;1.40;;;;;;;23.78;68.16;99394.28;5110671;28;20215;-79
2022/09/01 09:43:57;;;;;;;2.75;1.52;;;;;;;23.50;70.09;99391.16;5114724;28;20260;-79
2022/09/01 09:46:35;;;;;;;4.32;1.50;;;;;;;23.87;67.82;99395.09;5107472;28;20246;-80
2022/09/01 09:49:15;;;;;;;1.98;1.30;;;;;;;23.85;66.50;99389.84;5093876;28;20277;-79
2022/09/01 09:51:48;;;;;;;4.55;1.40;;;;;;;23.23;69.93;99389.72;5088334;28;20251;-79
2022/09/01 09:54:22;;;;;;;2.35;1.40;;;;;;;23.05;71.13;99384.53;5069010;28;20201;-80
2022/09/01 09:57:06;;;;;;;3.13;1.42;;;;;;;22.94;71.92;99387.59;5067144;28;20197;-80
2022/09/01 09:59:38;;;;;;;2.28;1.20;;;;;;;23.01;71.40;99385.91;5067081;28;20219;-79
2022/09/01 10:02:32;;;;;;;3.78;1.40;;;;;;;23.03;71.63;99383.88;5043762;28;20216;-80
2022/09/01 10:05:21;;;;;;;2.80;1.40;;;;;;;22.92;72.10;99375.28;5063750;28;20242;-80
2022/09/01 10:07:51;;;;;;;3.22;1.60;;;;;;;22.99;71.43;99379.00;5066718;28;20430;-79
2022/09/01 10:10:31;;;;;;;2.20;1.42;;;;;;;23.05;69.62;99364.78;5068103;28;20204;-79
2022/09/01 10:13:01;;;;;;;4.07;1.58;;;;;;;22.95;69.35;99375.78;5063319;28;20287;-79
2022/09/01 10:15:35;;;;;;;2.00;1.27;;;;;;;22.92;69.53;99367.19;5062446;28;20196;-79
2022/09/01 10:18:13;;;;;;;2.00;1.50;;;;;;;23.08;67.93;99359.06;5072875;28;20190;-80
2022/09/01 10:21:01;;;;;;;2.72;1.23;;;;;;;23.34;67.00;99356.06;5092509;28;20290;-80
2022/09/01 10:23:35;;;;;;;2.60;1.50;;;;;;;23.31;66.13;99361.84;5075433;28;20211;-80
2022/09/01 10:26:11;;;;;;;4.53;1.50;;;;;;;22.89;67.73;99362.97;5093333;28;20282;-79
2022/09/01 10:28:47;;;;;;;16.23;11.75;;;;;;;22.99;68.87;99357.38;5093046;28;20202;-80
2022/09/01 10:31:18;;;;;;;2.80;1.60;;;;;;;22.99;68.58;99358.22;5092564;28;20268;-80
2022/09/01 10:33:50;;;;;;;3.25;1.67;;;;;;;22.97;68.32;99357.56;5091425;28;20274;-80
2022/09/01 10:36:21;;;;;;;1.77;1.50;;;;;;;23.14;68.67;99358.34;5091441;28;20192;-80
2022/09/01 10:38:51;;;;;;;3.35;1.60;;;;;;;23.39;66.85;99356.41;5093368;28;20198;-80
2022/09/01 10:41:55;;;;;;;3.42;1.48;;;;;;;23.31;65.68;99357.28;5093119;28;20219;-80
2022/09/01 10:44:32;;;;;;;2.38;1.40;;;;;;;23.56;64.86;99354.47;5088347;28;20226;-79
2022/09/01 10:47:10;;;;;;;2.45;1.60;;;;;;;23.34;64.90;99354.22;5092939;28;20646;-79
2022/09/01 10:50:23;;;;;;;2.22;1.30;;;;;;;23.40;63.11;99350.81;5111618;28;20197;-80
2022/09/01 10:53:01;;;;;;;3.10;1.70;;;;;;;23.28;64.21;99357.63;5113182;28;20274;-79
2022/09/01 10:55:40;;;;;;;2.55;1.02;;;;;;;23.47;63.80;99350.97;5108037;28;20202;-80
2022/09/01 10:58:35;;;;;;;1.38;1.27;;;;;;;23.42;62.86;99345.22;5114494;27;20239;-80
2022/09/01 11:01:56;;;;;;;2.60;1.67;;;;;;;23.65;59.19;99348.03;5113504;28;20198;-80
2022/09/01 11:05:12;;;;;;;2.63;1.70;;;;;;;23.68;59.80;99353.94;5114118;28;20637;-79
2022/09/01 11:07:43;;;;;;;2.35;1.27;;;;;;;23.69;60.24;99361.03;5105748;28;20207;-80
2022/09/01 11:10:43;;;;;;;1.90;1.50;;;;;;;23.59;59.47;99354.16;5114368;28;20195;-79
2022/09/01 11:13:27;;;;;;;3.83;1.50;;;;;;;23.69;58.72;99355.59;5111646;28;20201;-79
2022/09/01 11:15:57;;;;;;;3.78;2.30;;;;;;;24.61;57.16;99355.66;5104399;28;20270;-79
2022/09/01 11:18:30;;;;;;;2.75;1.50;;;;;;;24.84;55.65;99352.88;5104047;28;20206;-79
2022/09/01 11:21:16;;;;;;;1.73;1.50;;;;;;;24.67;53.82;99354.91;5106337;28;20661;-79
2022/09/01 11:23:46;;;;;;;2.80;1.48;;;;;;;24.46;54.56;99354.78;5111280;28;20222;-80
2022/09/01 11:26:52;;;;;;;2.45;1.50;;;;;;;24.45;54.49;99347.69;5108244;28;20198;-80
2022/09/01 11:29:52;;;;;;;1.98;1.50;;;;;;;24.34;55.63;99348.94;5110850;28;20198;-80
2022/09/01 11:32:26;;;;;;;1.58;1.48;;;;;;;24.25;57.16;99350.00;5113468;28;20191;-80
2022/09/01 11:34:56;;;;;;;2.55;1.70;;;;;;;24.26;57.49;99354.41;5113156;28;20222;-80
2022/09/01 11:37:26;;;;;;;5.70;1.45;;;;;;;24.47;56.05;99351.88;5109377;28;20214;-79
2022/09/01 11:40:00;;;;;;;1.98;1.30;;;;;;;24.57;56.01;99348.06;5111069;28;20256;-80
2022/09/01 11:42:37;;;;;;;3.10;1.60;;;;;;;24.81;54.88;99353.28;5114157;28;20217;-80
2022/09/01 11:45:14;;;;;;;2.00;1.48;;;;;;;25.01;53.13;99354.41;5110289;28;20205;-80
2022/09/01 11:47:52;;;;;;;3.08;1.48;;;;;;;25.43;50.07;99346.66;5112050;28;20233;-80
2022/09/01 11:50:25;;;;;;;1.63;1.52;;;;;;;25.23;51.88;99344.53;5114126;28;20230;-80
2022/09/01 11:52:58;;;;;;;2.92;1.60;;;;;;;25.49;50.85;99345.91;5107313;28;20227;-80
2022/09/01 11:55:34;;;;;;;1.83;1.55;;;;;;;25.43;50.65;99335.81;5115353;28;20198;-80
2022/09/01 11:58:04;;;;;;;2.40;1.60;;;;;;;25.29;50.69;99341.06;5111529;28;20206;-80
2022/09/01 12:00:37;;;;;;;5.00;1.67;;;;;;;25.18;50.22;99341.53;5109737;28;20202;-80
2022/09/01 12:03:18;;;;;;;4.68;1.58;;;;;;;25.13;50.69;99337.69;5117065;27;20191;-80
2022/09/01 12:05:53;;;;;;;4.80;1.80;;;;;;;25.18;50.27;99338.81;5112702;28;20191;-79